createdAt,value
2023-05-05T00:00:03.599Z,101564.41
2023-05-05T00:02:51.817Z,101563.46
2023-05-05T00:05:20.572Z,101558.35
2023-05-05T00:07:48.834Z,101557.46
2023-05-05T00:10:17.469Z,101558.46
2023-05-05T00:12:45.651Z,101555.63
2023-05-05T00:15:13.966Z,101557.64
2023-05-05T00:17:42.235Z,101558.04
2023-05-05T00:20:10.844Z,101557.73
2023-05-05T00:22:39.063Z,101561.13
2023-05-05T00:25:07.605Z,101564.73
2023-05-05T00:27:36.743Z,101567.74
2023-05-05T00:30:07.194Z,101568.63
2023-05-05T00:32:35.557Z,101571.01
2023-05-05T00:35:03.860Z,101570.58
2023-05-05T00:37:32.090Z,101570.27
2023-05-05T00:40:00.595Z,101565.73
2023-05-05T00:42:39.282Z,101566.06
2023-05-05T00:45:07.857Z,101566.46
2023-05-05T00:47:36.463Z,101567.30
2023-05-05T00:50:08.476Z,101564.74
2023-05-05T00:52:37.593Z,101560.18
2023-05-05T00:55:06.387Z,101564.15
2023-05-05T00:57:35.910Z,101560.02
2023-05-05T01:00:06.157Z,101560.06
2023-05-05T01:02:34.858Z,101556.75
2023-05-05T01:05:03.924Z,101558.94
2023-05-05T01:07:44.318Z,101556.52
2023-05-05T01:10:26.537Z,101554.14
2023-05-05T01:12:57.732Z,101547.60
2023-05-05T01:15:33.817Z,101544.84
2023-05-05T01:18:06.998Z,101545.33
2023-05-05T01:20:41.390Z,101546.54
2023-05-05T01:23:12.648Z,101547.41
2023-05-05T01:26:09.353Z,101547.41
2023-05-05T01:28:51.185Z,101546.50
2023-05-05T01:31:34.467Z,101547.86
2023-05-05T01:34:06.930Z,101547.96
2023-05-05T01:36:42.513Z,101543.35
2023-05-05T01:39:15.284Z,101537.05
2023-05-05T01:41:48.881Z,101534.81
2023-05-05T01:44:19.208Z,101534.27
2023-05-05T01:46:48.998Z,101532.38
2023-05-05T01:49:17.359Z,101533.06
2023-05-05T01:51:47.099Z,101530.06
2023-05-05T01:54:15.664Z,101531.13
2023-05-05T01:56:44.879Z,101529.80
2023-05-05T01:59:13.392Z,101532.77
2023-05-05T02:01:44.874Z,101528.29
2023-05-05T02:04:14.572Z,101529.36
2023-05-05T02:06:44.130Z,101526.88
2023-05-05T02:09:13.362Z,101526.95
2023-05-05T02:11:41.855Z,101529.77
2023-05-05T02:14:11.366Z,101531.34
2023-05-05T02:16:41.451Z,101533.34
2023-05-05T02:19:09.757Z,101534.17
2023-05-05T02:21:38.179Z,101527.97
2023-05-05T02:24:07.178Z,101533.38
2023-05-05T02:26:44.538Z,101532.70
2023-05-05T02:29:19.245Z,101529.20
2023-05-05T02:31:52.828Z,101527.97
2023-05-05T02:34:26.824Z,101524.04
2023-05-05T02:36:58.345Z,101526.99
2023-05-05T02:39:32.163Z,101529.01
2023-05-05T02:42:05.675Z,101530.96
2023-05-05T02:44:35.070Z,101525.73
2023-05-05T02:47:07.163Z,101522.66
2023-05-05T02:49:35.480Z,101520.65
2023-05-05T02:52:03.824Z,101520.33
2023-05-05T02:54:32.529Z,101518.66
2023-05-05T02:57:01.278Z,101520.06
2023-05-05T02:59:49.663Z,101520.98
2023-05-05T03:02:39.527Z,101518.79
2023-05-05T03:05:13.435Z,101519.30
2023-05-05T03:08:02.823Z,101518.44
2023-05-05T03:10:36.077Z,101523.17
2023-05-05T03:13:08.098Z,101525.55
2023-05-05T03:15:41.665Z,101526.65
2023-05-05T03:18:11.159Z,101529.46
2023-05-05T03:20:40.723Z,101530.85
2023-05-05T03:23:09.240Z,101533.12
2023-05-05T03:25:44.159Z,101532.73
2023-05-05T03:28:12.865Z,101535.46
2023-05-05T03:30:41.802Z,101535.42
2023-05-05T03:33:13.045Z,101536.29
2023-05-05T03:35:41.259Z,101534.58
2023-05-05T03:38:09.490Z,101536.14
2023-05-05T03:40:44.150Z,101536.30
2023-05-05T03:43:13.038Z,101535.92
2023-05-05T03:45:41.354Z,101536.15
2023-05-05T03:48:10.200Z,101533.11
2023-05-05T03:50:38.405Z,101535.16
2023-05-05T03:53:06.629Z,101535.48
2023-05-05T03:55:35.468Z,101537.52
2023-05-05T03:58:03.733Z,101539.54
2023-05-05T04:00:31.919Z,101541.41
2023-05-05T04:03:00.274Z,101542.21
2023-05-05T04:05:28.567Z,101547.18
2023-05-05T04:07:58.059Z,101544.25
2023-05-05T04:10:26.395Z,101547.52
2023-05-05T04:12:54.669Z,101546.06
2023-05-05T04:15:22.956Z,101545.75
2023-05-05T04:17:51.256Z,101543.39
2023-05-05T04:20:19.699Z,101543.48
2023-05-05T04:22:47.999Z,101545.70
2023-05-05T04:25:16.810Z,101545.86
2023-05-05T04:27:45.100Z,101548.27
2023-05-05T04:30:13.552Z,101548.13
2023-05-05T04:32:41.912Z,101549.02
2023-05-05T04:35:13.197Z,101550.37
2023-05-05T04:37:41.367Z,101548.68
2023-05-05T04:40:10.212Z,101546.70
2023-05-05T04:42:38.792Z,101543.58
2023-05-05T04:45:07.728Z,101541.94
2023-05-05T04:47:39.459Z,101538.82
2023-05-05T04:50:08.987Z,101538.86
2023-05-05T04:52:37.908Z,101542.34
2023-05-05T04:55:06.908Z,101539.80
2023-05-05T04:57:35.112Z,101538.45
2023-05-05T05:00:05.670Z,101538.30
2023-05-05T05:02:34.134Z,101540.10
2023-05-05T05:05:02.854Z,101537.26
2023-05-05T05:07:31.182Z,101535.69
2023-05-05T05:09:59.613Z,101537.95
2023-05-05T05:12:27.772Z,101539.35
2023-05-05T05:14:56.167Z,101539.96
2023-05-05T05:17:25.165Z,101533.32
2023-05-05T05:19:55.475Z,101535.38
2023-05-05T05:22:23.733Z,101533.92
2023-05-05T05:24:52.332Z,101534.13
2023-05-05T05:27:20.539Z,101532.67
2023-05-05T05:29:48.796Z,101533.94
2023-05-05T05:32:17.092Z,101531.70
2023-05-05T05:34:45.880Z,101533.58
2023-05-05T05:37:14.079Z,101528.65
2023-05-05T05:39:43.768Z,101528.23
2023-05-05T05:42:12.044Z,101527.58
2023-05-05T05:44:40.354Z,101531.22
2023-05-05T05:47:08.573Z,101528.12
2023-05-05T05:49:37.170Z,101518.67
2023-05-05T05:52:06.122Z,101521.30
2023-05-05T05:54:35.847Z,101528.84
2023-05-05T05:57:04.742Z,101532.10
2023-05-05T05:59:33.258Z,101530.34
2023-05-05T06:02:01.990Z,101529.25
2023-05-05T06:04:31.774Z,101527.22
2023-05-05T06:07:00.059Z,101525.16
2023-05-05T06:09:28.289Z,101526.77
2023-05-05T06:11:56.529Z,101526.55
2023-05-05T06:14:24.850Z,101524.98
2023-05-05T06:16:53.193Z,101525.58
2023-05-05T06:19:21.691Z,101525.77
2023-05-05T06:21:49.922Z,101527.36
2023-05-05T06:24:18.165Z,101526.66
2023-05-05T06:26:46.387Z,101525.14
2023-05-05T06:29:14.532Z,101523.58
2023-05-05T06:31:43.269Z,101516.58
2023-05-05T06:34:11.678Z,101521.48
2023-05-05T06:36:39.906Z,101521.94
2023-05-05T06:39:08.147Z,101517.72
2023-05-05T06:41:36.399Z,101517.00
2023-05-05T06:44:05.344Z,101518.33
2023-05-05T06:46:33.597Z,101516.52
2023-05-05T06:49:03.756Z,101514.03
2023-05-05T06:51:32.398Z,101513.48
2023-05-05T06:54:00.635Z,101511.40
2023-05-05T06:56:28.875Z,101508.72
2023-05-05T06:58:57.037Z,101512.45
2023-05-05T07:01:25.440Z,101511.33
2023-05-05T07:03:53.771Z,101515.23
2023-05-05T07:06:22.351Z,101513.09
2023-05-05T07:08:50.640Z,101513.22
2023-05-05T07:11:19.896Z,101511.55
2023-05-05T07:13:49.469Z,101514.06
2023-05-05T07:16:17.682Z,101506.33
2023-05-05T07:18:54.691Z,101508.56
2023-05-05T07:21:23.068Z,101505.71
2023-05-05T07:23:51.375Z,101504.23
2023-05-05T07:26:19.627Z,101506.10
2023-05-05T07:28:47.967Z,101503.89
2023-05-05T07:31:16.354Z,101504.24
2023-05-05T07:33:44.633Z,101503.45
2023-05-05T07:36:12.854Z,101502.30
2023-05-05T07:38:41.107Z,101502.71
2023-05-05T07:41:11.849Z,101502.25
2023-05-05T07:43:44.631Z,101503.38
2023-05-05T07:46:14.058Z,101501.95
2023-05-05T07:48:42.346Z,101498.60
2023-05-05T07:51:11.085Z,101498.28
2023-05-05T07:53:39.391Z,101495.50
2023-05-05T07:56:09.106Z,101494.30
2023-05-05T07:58:37.409Z,101500.70
2023-05-05T08:01:07.145Z,101505.19
2023-05-05T08:03:35.519Z,101506.96
2023-05-05T08:06:09.647Z,101510.29
2023-05-05T08:08:38.284Z,101511.63
2023-05-05T08:11:06.817Z,101508.83
2023-05-05T08:13:35.324Z,101511.88
2023-05-05T08:16:03.932Z,101513.02
2023-05-05T08:18:32.193Z,101517.20
2023-05-05T08:21:00.425Z,101514.72
2023-05-05T08:23:28.683Z,101510.81
2023-05-05T08:25:56.911Z,101511.21
2023-05-05T08:28:25.262Z,101510.90
2023-05-05T08:30:53.576Z,101508.92
2023-05-05T08:33:21.938Z,101515.67
2023-05-05T08:35:50.226Z,101507.46
2023-05-05T08:38:19.361Z,101509.23
2023-05-05T08:40:47.756Z,101508.20
2023-05-05T08:43:16.163Z,101512.48
2023-05-05T08:45:44.840Z,101514.40
2023-05-05T08:48:13.512Z,101509.84
2023-05-05T08:50:45.668Z,101506.88
2023-05-05T08:53:17.769Z,101512.48
2023-05-05T08:55:52.314Z,101512.13
2023-05-05T08:58:22.478Z,101514.80
2023-05-05T09:00:51.501Z,101505.94
2023-05-05T09:03:20.047Z,101511.64
2023-05-05T09:05:48.414Z,101510.05
2023-05-05T09:08:16.761Z,101512.83
2023-05-05T09:10:45.048Z,101507.30
2023-05-05T09:13:28.662Z,101508.30
2023-05-05T09:15:57.327Z,101505.47
2023-05-05T09:18:26.043Z,101505.48
2023-05-05T09:20:54.427Z,101495.31
2023-05-05T09:23:22.722Z,101497.67
2023-05-05T09:26:05.443Z,101502.14
2023-05-05T09:28:34.556Z,101494.30
2023-05-05T09:31:13.940Z,101498.42
2023-05-05T09:33:42.566Z,101497.69
2023-05-05T09:36:11.889Z,101495.33
2023-05-05T09:38:40.433Z,101488.50
2023-05-05T09:41:09.054Z,101493.70
2023-05-05T09:43:52.112Z,101492.52
2023-05-05T09:46:21.156Z,101495.42
2023-05-05T09:48:49.895Z,101498.73
2023-05-05T09:51:29.420Z,101495.80
2023-05-05T09:53:58.187Z,101492.67
2023-05-05T09:56:39.036Z,101487.15
2023-05-05T09:59:12.173Z,101491.46
2023-05-05T10:01:43.758Z,101492.83
2023-05-05T10:04:32.855Z,101484.41
2023-05-05T10:07:01.399Z,101485.95
2023-05-05T10:09:32.339Z,101486.23
2023-05-05T10:12:04.087Z,101486.36
2023-05-05T10:14:32.667Z,101480.13
2023-05-05T10:17:02.011Z,101485.95
2023-05-05T10:19:35.325Z,101480.23
2023-05-05T10:22:08.500Z,101480.42
2023-05-05T10:24:40.932Z,101473.95
2023-05-05T10:27:29.037Z,101470.77
2023-05-05T10:30:08.151Z,101473.67
2023-05-05T10:32:58.982Z,101476.29
2023-05-05T10:35:33.905Z,101471.10
2023-05-05T10:38:03.003Z,101469.22
2023-05-05T10:40:31.897Z,101472.98
2023-05-05T10:43:00.336Z,101470.14
2023-05-05T10:45:28.750Z,101467.61
2023-05-05T10:47:59.768Z,101460.83
2023-05-05T10:50:33.168Z,101455.85
2023-05-05T10:53:13.701Z,101455.23
2023-05-05T10:55:51.199Z,101455.83
2023-05-05T10:58:58.201Z,101453.27
2023-05-05T11:01:35.446Z,101443.24
2023-05-05T11:04:23.748Z,101441.77
2023-05-05T11:07:21.888Z,101442.80
2023-05-05T11:09:58.202Z,101439.73
2023-05-05T11:12:26.608Z,101435.80
2023-05-05T11:15:28.680Z,101433.27
2023-05-05T11:18:05.779Z,101435.55
2023-05-05T11:20:35.611Z,101431.23
2023-05-05T11:23:04.025Z,101427.43
2023-05-05T11:25:35.733Z,101426.72
2023-05-05T11:28:14.627Z,101417.73
2023-05-05T11:30:55.044Z,101422.30
2023-05-05T11:33:33.716Z,101425.88
2023-05-05T11:36:04.238Z,101419.83
2023-05-05T11:38:57.060Z,101418.10
2023-05-05T11:41:34.095Z,101414.71
2023-05-05T11:44:29.897Z,101405.80
2023-05-05T11:46:59.562Z,101401.20
2023-05-05T11:53:10.018Z,101400.77
2023-05-05T11:55:38.414Z,101402.26
2023-05-05T11:58:18.993Z,101396.95
2023-05-05T12:00:48.305Z,101382.39
2023-05-05T12:03:16.785Z,101376.81
2023-05-05T12:05:46.671Z,101377.73
2023-05-05T12:08:15.244Z,101379.75
2023-05-05T12:10:43.503Z,101375.97
2023-05-05T12:13:22.274Z,101371.06
2023-05-05T12:15:51.190Z,101370.05
2023-05-05T12:18:21.047Z,101359.73
2023-05-05T12:20:49.320Z,101356.33
2023-05-05T12:23:17.903Z,101350.64
2023-05-05T12:25:46.897Z,101344.57
2023-05-05T12:28:15.286Z,101341.00
2023-05-05T12:30:43.693Z,101336.05
2023-05-05T12:33:12.243Z,101338.89
2023-05-05T12:35:41.717Z,101332.52
2023-05-05T12:38:10.237Z,101334.55
2023-05-05T12:40:53.362Z,101324.48
2023-05-05T12:43:33.225Z,101319.67
2023-05-05T12:46:06.991Z,101318.70
2023-05-05T12:48:38.479Z,101314.25
2023-05-05T12:51:21.095Z,101315.83
2023-05-05T12:54:01.435Z,101314.40
2023-05-05T12:56:48.668Z,101311.09
2023-05-05T12:59:23.359Z,101310.23
2023-05-05T13:01:53.348Z,101307.44
2023-05-05T13:04:23.842Z,101307.42
2023-05-05T13:07:11.940Z,101308.09
2023-05-05T13:09:40.461Z,101306.70
2023-05-05T13:12:12.105Z,101301.14
2023-05-05T13:14:41.835Z,101300.13
2023-05-05T13:17:13.800Z,101297.18
2023-05-05T13:19:43.046Z,101293.57
2023-05-05T13:22:11.368Z,101286.53
2023-05-05T13:24:50.959Z,101288.92
2023-05-05T13:27:21.355Z,101285.77
2023-05-05T13:29:50.027Z,101284.55
2023-05-05T13:32:18.407Z,101278.94
2023-05-05T13:34:46.885Z,101279.08
2023-05-05T13:37:15.583Z,101278.16
2023-05-05T13:39:44.282Z,101276.43
2023-05-05T13:42:12.533Z,101273.02
2023-05-05T13:44:41.117Z,101268.12
2023-05-05T13:47:09.655Z,101266.59
2023-05-05T13:49:38.290Z,101260.48
2023-05-05T13:52:06.885Z,101256.38
2023-05-05T13:54:35.358Z,101254.15
2023-05-05T13:57:03.880Z,101253.44
2023-05-05T13:59:32.212Z,101247.14
2023-05-05T14:02:01.653Z,101244.06
2023-05-05T14:04:30.177Z,101240.29
2023-05-05T14:06:58.789Z,101242.66
2023-05-05T14:09:27.193Z,101245.39
2023-05-05T14:11:55.655Z,101239.96
2023-05-05T14:14:24.136Z,101239.89
2023-05-05T14:16:52.589Z,101231.41
2023-05-05T14:19:21.310Z,101230.15
2023-05-05T14:21:49.796Z,101226.66
2023-05-05T14:24:18.258Z,101227.20
2023-05-05T14:26:46.942Z,101219.08
2023-05-05T14:29:15.430Z,101220.16
2023-05-05T14:31:43.866Z,101222.57
2023-05-05T14:34:12.491Z,101224.16
2023-05-05T14:36:41.523Z,101219.06
2023-05-05T14:39:09.988Z,101219.84
2023-05-05T14:41:38.348Z,101217.55
2023-05-05T14:44:06.830Z,101216.48
2023-05-05T14:46:35.411Z,101215.24
2023-05-05T14:49:03.800Z,101217.46
2023-05-05T14:51:32.374Z,101213.20
2023-05-05T14:54:00.858Z,101226.35
2023-05-05T14:56:29.342Z,101224.94
2023-05-05T14:58:57.826Z,101226.02
2023-05-05T15:01:26.551Z,101228.64
2023-05-05T15:03:55.379Z,101229.17
2023-05-05T15:06:24.296Z,101229.54
2023-05-05T15:08:52.705Z,101230.17
2023-05-05T15:11:22.176Z,101229.12
2023-05-05T15:13:50.660Z,101226.89
2023-05-05T15:16:19.192Z,101227.61
2023-05-05T15:18:47.824Z,101229.16
2023-05-05T15:21:16.211Z,101227.10
2023-05-05T15:23:44.683Z,101229.88
2023-05-05T15:26:13.167Z,101226.39
2023-05-05T15:28:41.561Z,101227.82
2023-05-05T15:31:10.170Z,101225.64
2023-05-05T15:33:39.640Z,101220.83
2023-05-05T15:36:08.525Z,101220.94
2023-05-05T15:38:43.029Z,101221.25
2023-05-05T15:41:11.353Z,101219.17
2023-05-05T15:43:39.713Z,101222.14
2023-05-05T15:46:08.095Z,101221.67
2023-05-05T15:48:36.579Z,101221.20
2023-05-05T15:51:05.256Z,101225.40
2023-05-05T15:53:34.272Z,101224.77
2023-05-05T15:56:02.935Z,101224.48
2023-05-05T15:58:31.516Z,101225.48
2023-05-05T16:01:00.025Z,101226.42
2023-05-05T16:03:28.901Z,101228.75
2023-05-05T16:05:57.476Z,101226.66
2023-05-05T16:08:25.961Z,101224.40
2023-05-05T16:10:54.745Z,101225.96
2023-05-05T16:13:23.128Z,101227.84
2023-05-05T16:15:51.608Z,101228.98
2023-05-05T16:18:19.986Z,101232.90
2023-05-05T16:20:48.573Z,101231.77
2023-05-05T16:23:17.224Z,101232.55
2023-05-05T16:25:45.635Z,101228.55
2023-05-05T16:28:14.114Z,101232.70
2023-05-05T16:30:43.623Z,101233.94
2023-05-05T16:33:12.006Z,101236.17
2023-05-05T16:35:40.893Z,101237.96
2023-05-05T16:38:09.174Z,101239.71
2023-05-05T16:40:38.245Z,101236.56
2023-05-05T16:43:06.873Z,101238.15
2023-05-05T16:45:35.442Z,101236.58
2023-05-05T16:48:05.565Z,101238.67
2023-05-05T16:50:35.162Z,101241.95
2023-05-05T16:53:03.761Z,101243.16
2023-05-05T16:55:32.345Z,101244.69
2023-05-05T16:58:01.018Z,101246.70
2023-05-05T17:00:29.911Z,101248.33
2023-05-05T17:02:58.243Z,101251.95
2023-05-05T17:05:27.312Z,101252.95
2023-05-05T17:07:55.557Z,101252.61
2023-05-05T17:10:24.351Z,101259.21
2023-05-05T17:12:52.701Z,101258.88
2023-05-05T17:15:21.924Z,101259.86
2023-05-05T17:17:50.461Z,101260.86
2023-05-05T17:20:18.993Z,101262.38
2023-05-05T17:22:47.779Z,101266.24
2023-05-05T17:25:16.478Z,101267.37
2023-05-05T17:27:45.057Z,101266.50
2023-05-05T17:30:14.148Z,101265.60
2023-05-05T17:32:42.551Z,101268.64
2023-05-05T17:35:11.414Z,101268.45
2023-05-05T17:37:40.230Z,101271.95
2023-05-05T17:40:09.045Z,101275.11
2023-05-05T17:42:38.539Z,101277.54
2023-05-05T17:45:08.620Z,101278.79
2023-05-05T17:47:37.795Z,101279.88
2023-05-05T17:50:07.067Z,101280.75
2023-05-05T17:52:35.416Z,101283.89
2023-05-05T17:55:04.924Z,101286.67
2023-05-05T17:57:33.392Z,101289.14
2023-05-05T18:00:04.096Z,101291.19
2023-05-05T18:02:32.399Z,101289.73
2023-05-05T18:05:01.293Z,101292.19
2023-05-05T18:07:29.670Z,101296.76
2023-05-05T18:09:58.159Z,101299.27
2023-05-05T18:12:27.155Z,101298.91
2023-05-05T18:14:55.472Z,101302.04
2023-05-05T18:17:24.008Z,101306.45
2023-05-05T18:19:52.417Z,101309.30
2023-05-05T18:22:22.107Z,101311.02
2023-05-05T18:24:50.795Z,101313.95
2023-05-05T18:27:19.164Z,101312.19
2023-05-05T18:29:47.658Z,101315.14
2023-05-05T18:32:16.650Z,101316.56
2023-05-05T18:34:45.122Z,101316.35
2023-05-05T18:37:13.616Z,101316.45
2023-05-05T18:39:43.933Z,101320.23
2023-05-05T18:42:13.689Z,101320.65
2023-05-05T18:44:42.227Z,101324.69
2023-05-05T18:47:11.156Z,101323.69
2023-05-05T18:49:39.612Z,101326.98
2023-05-05T18:52:08.015Z,101327.48
2023-05-05T18:54:37.830Z,101327.21
2023-05-05T18:57:06.373Z,101330.95
2023-05-05T18:59:34.824Z,101330.10
2023-05-05T19:02:03.296Z,101330.77
2023-05-05T19:04:32.995Z,101332.92
2023-05-05T19:07:01.429Z,101334.25
2023-05-05T19:09:30.456Z,101334.06
2023-05-05T19:11:58.908Z,101334.19
2023-05-05T19:14:27.493Z,101332.63
2023-05-05T19:16:56.349Z,101334.36
2023-05-05T19:19:25.880Z,101332.96
2023-05-05T19:21:54.173Z,101330.03
2023-05-05T19:24:22.753Z,101330.05
2023-05-05T19:26:51.231Z,101332.83
2023-05-05T19:29:19.706Z,101332.74
2023-05-05T19:31:48.124Z,101330.95
2023-05-05T19:34:16.789Z,101332.77
2023-05-05T19:36:45.250Z,101330.15
2023-05-05T19:39:15.312Z,101331.37
2023-05-05T19:41:44.178Z,101331.94
2023-05-05T19:44:12.654Z,101331.98
2023-05-05T19:46:41.382Z,101335.91
2023-05-05T19:49:10.120Z,101339.02
2023-05-05T19:51:38.394Z,101338.02
2023-05-05T19:54:06.873Z,101336.13
2023-05-05T19:56:35.360Z,101335.37
2023-05-05T19:59:06.619Z,101334.11
2023-05-05T20:01:35.601Z,101331.63
2023-05-05T20:04:04.389Z,101329.58
2023-05-05T20:06:33.483Z,101327.78
2023-05-05T20:09:02.386Z,101328.73
2023-05-05T20:11:31.474Z,101327.91
2023-05-05T20:13:59.913Z,101327.04
2023-05-05T20:16:28.206Z,101323.63
2023-05-05T20:18:56.505Z,101326.48
2023-05-05T20:21:24.833Z,101325.33
2023-05-05T20:23:54.754Z,101327.80
2023-05-05T20:26:24.641Z,101325.63
2023-05-05T20:28:53.131Z,101324.18
2023-05-05T20:31:21.491Z,101321.65
2023-05-05T20:33:49.869Z,101319.14
2023-05-05T20:36:18.389Z,101319.83
2023-05-05T20:38:46.752Z,101319.22
2023-05-05T20:41:14.986Z,101324.00
2023-05-05T20:43:43.170Z,101324.11
2023-05-05T20:46:14.242Z,101320.41
2023-05-05T20:48:44.140Z,101322.63
2023-05-05T20:51:12.354Z,101324.04
2023-05-05T20:53:41.355Z,101323.81
2023-05-05T20:56:09.869Z,101323.25
2023-05-05T20:58:38.193Z,101324.86
2023-05-05T21:01:06.496Z,101327.01
2023-05-05T21:03:36.600Z,101324.11
2023-05-05T21:06:05.178Z,101326.12
2023-05-05T21:08:33.353Z,101327.33
2023-05-05T21:11:01.730Z,101324.46
2023-05-05T21:13:30.755Z,101326.95
2023-05-05T21:15:58.988Z,101322.05
2023-05-05T21:18:27.831Z,101317.98
2023-05-05T21:20:56.364Z,101319.70
2023-05-05T21:23:24.720Z,101317.61
2023-05-05T21:25:52.940Z,101321.87
2023-05-05T21:28:21.203Z,101323.22
2023-05-05T21:31:10.169Z,101320.92
2023-05-05T21:33:39.771Z,101319.77
2023-05-05T21:36:08.198Z,101320.09
2023-05-05T21:38:36.412Z,101318.61
2023-05-05T21:41:04.621Z,101321.05
2023-05-05T21:43:32.832Z,101323.88
2023-05-05T21:46:01.997Z,101320.00
2023-05-05T21:48:31.481Z,101322.83
2023-05-05T21:50:59.891Z,101323.77
2023-05-05T21:53:28.178Z,101323.41
2023-05-05T21:55:56.620Z,101321.14
2023-05-05T21:58:25.281Z,101318.74
2023-05-05T22:00:53.595Z,101320.97
2023-05-05T22:03:21.859Z,101319.07
2023-05-05T22:05:50.211Z,101318.77
2023-05-05T22:08:19.482Z,101322.45
2023-05-05T22:10:47.867Z,101319.10
2023-05-05T22:13:16.281Z,101318.29
2023-05-05T22:15:47.135Z,101317.92
2023-05-05T22:18:16.088Z,101315.58
2023-05-05T22:20:44.399Z,101319.52
2023-05-05T22:23:14.163Z,101317.49
2023-05-05T22:25:42.507Z,101317.50
2023-05-05T22:28:11.660Z,101314.40
2023-05-05T22:30:39.962Z,101309.81
2023-05-05T22:33:08.640Z,101309.45
2023-05-05T22:35:37.887Z,101308.18
2023-05-05T22:38:06.610Z,101309.29
2023-05-05T22:40:35.736Z,101306.73
2023-05-05T22:43:04.131Z,101306.56
2023-05-05T22:45:33.222Z,101303.67
2023-05-05T22:48:02.330Z,101300.88
2023-05-05T22:50:30.648Z,101300.70
2023-05-05T22:52:58.914Z,101299.46
2023-05-05T22:55:27.493Z,101296.46
2023-05-05T22:57:55.648Z,101296.25
2023-05-05T23:00:24.387Z,101293.81
2023-05-05T23:02:52.740Z,101294.18
2023-05-05T23:05:21.030Z,101295.98
2023-05-05T23:07:49.308Z,101293.44
2023-05-05T23:10:17.532Z,101291.70
2023-05-05T23:12:45.977Z,101292.53
2023-05-05T23:15:14.211Z,101291.64
2023-05-05T23:17:42.453Z,101290.60
2023-05-05T23:20:13.338Z,101292.59
2023-05-05T23:22:41.658Z,101292.20
2023-05-05T23:25:10.223Z,101291.33
2023-05-05T23:27:40.166Z,101293.02
2023-05-05T23:30:09.437Z,101293.48
2023-05-05T23:32:37.898Z,101294.70
2023-05-05T23:35:06.604Z,101294.69
2023-05-05T23:37:34.842Z,101291.35
2023-05-05T23:40:03.089Z,101295.89
2023-05-05T23:42:31.235Z,101292.34
2023-05-05T23:44:59.447Z,101292.77
2023-05-05T23:47:27.638Z,101291.15
2023-05-05T23:49:55.816Z,101289.60
2023-05-05T23:52:24.122Z,101289.27
2023-05-05T23:54:52.310Z,101285.01
2023-05-05T23:57:20.899Z,101291.38
2023-05-05T23:59:49.123Z,101286.72
